Paige Marie — WCY5613 — position and weather

sailwx.info

Track history (hours):
 
Tides and Currents Weather Stations Pressure Air Temp Water Temp Dewpoint Dewpoint Depression Visibility Wind Speed Wind Dir Waves Ship Positions

Paige Marie

Owner: SORO, INC., OLYMPIA, WA. More information available from US FCC via Universal Licensing System and Coast Guard Vessel Documentation Center.

Last reported at 2017-Dec-13 02:03 UTC. Time now 2017-Dec-15 10:30 UTC.
Position N 47°56' W 122°30'.

Length 18 m.

Type: Fishing. MMSI: 367355120.

Date/timePositionNaut miles runAvg speedWind from/ knotsBaromVisibWave heightAir tempDewpointWater temp
2017-Dec-13 02:03N 47°56' W 122°30'0 9.7
2017-Dec-13 02:01N 47°56' W 122°30'5 9.4
2017-Dec-13 01:30N 47°51' W 122°27'6 8.9
2017-Dec-13 00:51N 47°46' W 122°26'3 9.0
2017-Dec-13 00:30N 47°43' W 122°25'3 5.5
2017-Dec-12 23:59N 47°40' W 122°24'1 1.9
2017-Dec-12 23:30N 47°39' W 122°23'0 0.2
2017-Dec-12 22:59N 47°39' W 122°23'0 0.0
2017-Dec-12 22:29N 47°39' W 122°23'0 0.0
2017-Dec-12 21:59N 47°39' W 122°23'0 0.0
2017-Dec-12 21:30N 47°39' W 122°23'0 0.2
2017-Dec-12 20:59N 47°39' W 122°23'0 0.1
2017-Dec-12 20:29N 47°39' W 122°23'0 0.1
2017-Dec-12 19:59N 47°39' W 122°23'0 0.1
2017-Dec-12 19:29N 47°39' W 122°23'0 0.1
2017-Dec-12 18:59N 47°39' W 122°23'0 0.1
2017-Dec-12 18:26N 47°39' W 122°23'0 0.0
2017-Dec-12 17:59N 47°39' W 122°23'0 0.0
2017-Dec-12 17:29N 47°39' W 122°23'0 0.0
2017-Dec-12 16:23N 47°39' W 122°23'0 0.1
2017-Dec-12 15:41N 47°39' W 122°23'0 0.0
2017-Dec-12 15:26N 47°39' W 122°23'0 0.0
2017-Dec-12 14:59N 47°39' W 122°23'0 0.0
2017-Dec-12 14:29N 47°39' W 122°23'0 0.0
2017-Dec-12 13:59N 47°39' W 122°23'0 0.0
2017-Dec-12 13:29N 47°39' W 122°23'0 0.0
2017-Dec-12 12:59N 47°39' W 122°23'0 0.0
2017-Dec-12 12:29N 47°39' W 122°23'0 0.0
2017-Dec-12 11:59N 47°39' W 122°23'0 0.0
2017-Dec-12 11:29N 47°39' W 122°23'0 0.0
2017-Dec-12 10:59N 47°39' W 122°23'0 0.0
2017-Dec-12 10:29N 47°39' W 122°23'0 0.0
2017-Dec-12 09:59N 47°39' W 122°23'0 0.0
2017-Dec-12 09:26N 47°39' W 122°23'0 0.0
2017-Dec-12 08:59N 47°39' W 122°23'0 0.0
2017-Dec-12 08:29N 47°39' W 122°23'0 0.0
2017-Dec-12 07:59N 47°39' W 122°23'0 0.1
2017-Dec-12 07:29N 47°39' W 122°23'0 0.0
2017-Dec-12 06:14N 47°39' W 122°23'0 0.0
2017-Dec-11 23:32N 47°39' W 122°23'0 0.1
2017-Dec-11 23:29N 47°39' W 122°23'0 0.0
2017-Dec-11 22:59N 47°39' W 122°23'0 0.0
2017-Dec-11 22:26N 47°39' W 122°23'0 0.1
2017-Dec-11 21:47N 47°39' W 122°23'0 0.1
2017-Dec-11 21:29N 47°39' W 122°23'0 0.0
2017-Dec-11 20:59N 47°39' W 122°23'0 0.1
2017-Dec-11 20:29N 47°39' W 122°23'0 0.1
2017-Dec-11 19:59N 47°39' W 122°23'0 0.1
2017-Dec-11 19:29N 47°39' W 122°23'0 0.1
2017-Dec-11 18:59N 47°39' W 122°23'0 0.0
2017-Dec-11 18:29N 47°39' W 122°23'0 0.0
2017-Dec-11 17:53N 47°39' W 122°23'0 0.0
2017-Dec-11 17:29N 47°39' W 122°23'0 0.0
2017-Dec-11 16:59N 47°39' W 122°23'0 0.1
2017-Dec-11 16:26N 47°39' W 122°23'0 0.1
2017-Dec-11 15:59N 47°39' W 122°23'0 0.0
2017-Dec-11 15:30N 47°39' W 122°23'0 0.0
2017-Dec-11 15:00N 47°39' W 122°23'0 0.0
2017-Dec-11 14:30N 47°39' W 122°23'0 0.0
2017-Dec-11 14:00N 47°39' W 122°23'0 0.0
2017-Dec-11 13:30N 47°39' W 122°23'0 0.1
2017-Dec-11 13:00N 47°39' W 122°23'0 0.1
2017-Dec-11 12:30N 47°39' W 122°23'0 0.0
2017-Dec-11 11:59N 47°39' W 122°23'0 0.0
2017-Dec-11 11:29N 47°39' W 122°23'0 0.0
2017-Dec-11 10:59N 47°39' W 122°23'0 0.0
2017-Dec-11 10:29N 47°39' W 122°23'0 0.0
2017-Dec-11 09:58N 47°39' W 122°23'0 0.1
2017-Dec-11 09:23N 47°39' W 122°23'0 0.1
2017-Dec-11 08:58N 47°39' W 122°23'0 0.0
2017-Dec-11 08:28N 47°39' W 122°23'0 0.1
2017-Dec-11 07:58N 47°39' W 122°23'0 0.0
2017-Dec-11 07:28N 47°39' W 122°23'0 0.0
2017-Dec-11 06:58N 47°39' W 122°23'0 0.1
2017-Dec-11 06:25N 47°39' W 122°23'0 0.1
2017-Dec-11 05:59N 47°39' W 122°23'0 0.0
2017-Dec-11 05:29N 47°39' W 122°23'0 0.1
2017-Dec-11 04:41N 47°39' W 122°23'0 0.1
2017-Dec-11 04:17N 47°39' W 122°23'0 0.0
2017-Dec-11 03:07N 47°39' W 122°23'0 0.2
2017-Dec-11 02:55N 47°39' W 122°23'0 0.1
2017-Dec-11 02:16N 47°39' W 122°23'0 0.0
2017-Dec-11 01:55N 47°39' W 122°23'0 0.0
2017-Dec-11 01:28N 47°39' W 122°23'0 0.0
2017-Dec-11 00:49N 47°39' W 122°23'0 0.0
2017-Dec-11 00:25N 47°39' W 122°23'0 0.0
2017-Dec-10 23:52N 47°39' W 122°23'0 0.0
2017-Dec-10 23:28N 47°39' W 122°23'0 0.0
2017-Dec-10 22:58N 47°39' W 122°23'0 0.0
2017-Dec-10 22:28N 47°39' W 122°23'0 0.1
2017-Dec-10 21:58N 47°39' W 122°23'0 0.0
2017-Dec-10 21:28N 47°39' W 122°23'0 0.1
2017-Dec-10 20:55N 47°39' W 122°23'0 0.0
2017-Dec-10 20:25N 47°39' W 122°23'0 0.0
2017-Dec-10 19:58N 47°39' W 122°23'0 0.0
2017-Dec-10 19:28N 47°39' W 122°23'0 0.1
2017-Dec-10 18:52N 47°39' W 122°23'0 0.1
2017-Dec-10 18:28N 47°39' W 122°23'0 0.0
2017-Dec-10 17:16N 47°39' W 122°23'0 0.0
2017-Dec-10 16:58N 47°39' W 122°23'0 0.0
2017-Dec-10 16:28N 47°39' W 122°23'0 0.1
2017-Dec-10 15:55N 47°39' W 122°23'0 0.1
2017-Dec-10 15:19N 47°39' W 122°23'0 0.0
2017-Dec-10 14:58N 47°39' W 122°23'0 0.0
2017-Dec-10 14:28N 47°39' W 122°23'0 0.0
2017-Dec-10 13:58N 47°39' W 122°23'0 0.0
2017-Dec-10 13:28N 47°39' W 122°23'0 0.0
2017-Dec-10 12:58N 47°39' W 122°23'0 0.0
2017-Dec-10 12:25N 47°39' W 122°23'0 0.0
2017-Dec-10 11:58N 47°39' W 122°23'0 0.0
2017-Dec-10 11:28N 47°39' W 122°23'0 0.0
2017-Dec-10 10:58N 47°39' W 122°23'0 0.0
2017-Dec-10 10:28N 47°39' W 122°23'0 0.1
2017-Dec-10 09:58N 47°39' W 122°23'0 0.0
2017-Dec-10 09:25N 47°39' W 122°23'0 0.0
2017-Dec-10 08:58N 47°39' W 122°23'0 0.0
2017-Dec-10 08:28N 47°39' W 122°23'0 0.1
2017-Dec-10 07:55N 47°39' W 122°23'0 0.0
2017-Dec-10 07:22N 47°39' W 122°23'0 0.0
2017-Dec-10 06:58N 47°39' W 122°23'0 0.1
2017-Dec-10 06:28N 47°39' W 122°23'0 0.0
2017-Dec-10 04:43N 47°39' W 122°23'0 0.0
2017-Dec-10 04:28N 47°39' W 122°23'0 0.1
2017-Dec-10 03:49N 47°39' W 122°23'0 0.0
2017-Dec-10 03:28N 47°39' W 122°23'0 0.0
2017-Dec-10 01:07N 47°39' W 122°23'0 0.0
2017-Dec-10 00:43N 47°39' W 122°23'0 0.0
2017-Dec-10 00:16N 47°39' W 122°23'0 0.0
2017-Dec-09 23:58N 47°39' W 122°23'0 0.0
2017-Dec-09 23:04N 47°39' W 122°23'0 0.1
2017-Dec-09 22:58N 47°39' W 122°23'0 0.1
2017-Dec-09 22:19N 47°39' W 122°23'0 0.0
2017-Dec-09 21:58N 47°39' W 122°23'0 0.0
2017-Dec-09 21:28N 47°39' W 122°23'0 0.0
2017-Dec-09 20:46N 47°39' W 122°23'0 0.0
2017-Dec-09 20:28N 47°39' W 122°23'0 0.1
2017-Dec-09 19:58N 47°39' W 122°23'0 0.0
2017-Dec-09 18:43N 47°39' W 122°23'0 0.1
2017-Dec-09 18:07N 47°39' W 122°23'0 0.3
2017-Dec-09 17:58N 47°39' W 122°23'0 0.1
2017-Dec-09 17:25N 47°39' W 122°23'0 0.1
2017-Dec-09 16:55N 47°39' W 122°23'0 0.0
2017-Dec-09 16:13N 47°39' W 122°23'0 0.0
2017-Dec-09 15:58N 47°39' W 122°23'0 0.1
2017-Dec-09 15:28N 47°39' W 122°23'0 0.1
2017-Dec-09 14:58N 47°39' W 122°23'0 0.0
2017-Dec-09 14:28N 47°39' W 122°23'0 0.0
2017-Dec-09 13:58N 47°39' W 122°23'0 0.0
2017-Dec-09 13:28N 47°39' W 122°23'0 0.1
2017-Dec-09 12:52N 47°39' W 122°23'0 0.1
2017-Dec-09 12:25N 47°39' W 122°23'0 0.1
2017-Dec-09 11:58N 47°39' W 122°23'0 0.1
2017-Dec-09 11:28N 47°39' W 122°23'0 0.0
2017-Dec-09 10:58N 47°39' W 122°23'0 0.0
2017-Dec-09 10:28N 47°39' W 122°23'0 0.1
2017-Dec-09 09:58N 47°39' W 122°23'0 0.1
2017-Dec-09 09:28N 47°39' W 122°23'0 0.0
2017-Dec-09 08:58N 47°39' W 122°23'0 0.1
2017-Dec-09 08:25N 47°39' W 122°23'0 0.0
2017-Dec-09 07:58N 47°39' W 122°23'0 0.1
2017-Dec-09 07:28N 47°39' W 122°23'0 0.1
2017-Dec-09 06:55N 47°39' W 122°23'0 0.1
2017-Dec-09 06:25N 47°39' W 122°23'0 0.0
2017-Dec-09 03:22N 47°39' W 122°23'0 0.1
2017-Dec-09 02:55N 47°39' W 122°23'0 0.0
2017-Dec-09 01:01N 47°39' W 122°23'0 0.0
2017-Dec-09 00:58N 47°39' W 122°23'0 0.0
2017-Dec-09 00:10N 47°39' W 122°23'0 0.0
2017-Dec-08 23:46N 47°39' W 122°23'0 0.0
2017-Dec-08 23:28N 47°39' W 122°23'0 0.1
2017-Dec-08 22:52N 47°39' W 122°23'0 0.0
2017-Dec-08 22:28N 47°39' W 122°23'0 0.0
2017-Dec-08 21:59N 47°39' W 122°23'0 0.0
2017-Dec-08 21:23N 47°39' W 122°23'0 0.0
2017-Dec-08 20:55N 47°39' W 122°23'0 0.0
2017-Dec-08 20:26N 47°39' W 122°23'0 0.0
2017-Dec-08 19:59N 47°39' W 122°23'0 0.0
2017-Dec-08 19:29N 47°39' W 122°23'0 0.0
2017-Dec-08 18:59N 47°39' W 122°23'0 0.1
2017-Dec-08 18:29N 47°39' W 122°23'0 0.0
2017-Dec-08 17:59N 47°39' W 122°23'0 0.0
2017-Dec-08 17:29N 47°39' W 122°23'0 0.0
2017-Dec-08 16:50N 47°39' W 122°23'0 0.0
2017-Dec-08 16:26N 47°39' W 122°23'0 0.0
2017-Dec-08 15:59N 47°39' W 122°23'0 0.0
2017-Dec-08 15:26N 47°39' W 122°23'0 0.0
2017-Dec-08 14:59N 47°39' W 122°23'0 0.0
2017-Dec-08 14:26N 47°39' W 122°23'0 0.0
2017-Dec-08 13:59N 47°39' W 122°23'0 0.0
2017-Dec-08 13:29N 47°39' W 122°23'0 0.1
2017-Dec-08 12:59N 47°39' W 122°23'0 0.1
2017-Dec-08 12:29N 47°39' W 122°23'0 0.1
2017-Dec-08 11:59N 47°39' W 122°23'0 0.1
2017-Dec-08 11:29N 47°39' W 122°23'0 0.0
2017-Dec-08 10:59N 47°39' W 122°23'0 0.0
2017-Dec-08 10:29N 47°39' W 122°23'0 0.0
2017-Dec-08 09:59N 47°39' W 122°23'0 0.0
2017-Dec-08 09:29N 47°39' W 122°23'0 0.0
2017-Dec-08 08:59N 47°39' W 122°23'0 0.1
2017-Dec-08 08:29N 47°39' W 122°23'0 0.1
2017-Dec-08 07:59N 47°39' W 122°23'0 0.0
2017-Dec-08 07:29N 47°39' W 122°23'0 0.0
2017-Dec-08 04:02N 47°39' W 122°23'0 0.0
2017-Dec-08 03:53N 47°39' W 122°23'0 0.0
2017-Dec-08 03:08N 47°39' W 122°23'0 0.1
2017-Dec-08 02:47N 47°39' W 122°23'0 0.0
2017-Dec-08 02:20N 47°39' W 122°23'0 0.0
2017-Dec-08 01:56N 47°39' W 122°23'0 0.1
2017-Dec-08 01:26N 47°39' W 122°23'0 0.0
2017-Dec-08 00:59N 47°39' W 122°23'0 0.1
2017-Dec-08 00:29N 47°39' W 122°23'0 0.0
2017-Dec-07 23:56N 47°39' W 122°23'0 0.0
2017-Dec-07 23:29N 47°39' W 122°23'0 0.0
2017-Dec-07 22:59N 47°39' W 122°23'0 0.1
2017-Dec-07 22:29N 47°39' W 122°23'0 0.1
2017-Dec-07 21:59N 47°39' W 122°23'0 0.1
2017-Dec-07 21:29N 47°39' W 122°23'0 0.0
2017-Dec-07 20:59N 47°39' W 122°23'0 0.0
2017-Dec-07 20:29N 47°39' W 122°23'0 0.1
2017-Dec-07 19:56N 47°39' W 122°23'0 0.1
2017-Dec-07 19:29N 47°39' W 122°23'0 0.0
2017-Dec-07 18:59N 47°39' W 122°23'0 0.1
2017-Dec-07 18:29N 47°39' W 122°23'0 0.0
2017-Dec-07 17:59N 47°39' W 122°23'0 0.0
2017-Dec-07 17:29N 47°39' W 122°23'0 0.0
2017-Dec-07 16:59N 47°39' W 122°23'0 0.0
2017-Dec-07 16:29N 47°39' W 122°23'0 0.0
2017-Dec-07 15:59N 47°39' W 122°23'0 0.0
2017-Dec-07 15:29N 47°39' W 122°23'0 0.0
2017-Dec-07 14:59N 47°39' W 122°23'0 0.0
2017-Dec-07 14:26N 47°39' W 122°23'0 0.0
2017-Dec-07 13:59N 47°39' W 122°23'0 0.0
2017-Dec-07 13:26N 47°39' W 122°23'0 0.0
2017-Dec-07 12:59N 47°39' W 122°23'0 0.0
2017-Dec-07 12:29N 47°39' W 122°23'0 0.0
2017-Dec-07 11:59N 47°39' W 122°23'0 0.1
2017-Dec-07 11:29N 47°39' W 122°23'0 0.1
2017-Dec-07 10:56N 47°39' W 122°23'0 0.0
2017-Dec-07 10:30N 47°39' W 122°23'0 0.1
2017-Dec-07 10:00N 47°39' W 122°23'0 0.1
2017-Dec-07 09:29N 47°39' W 122°23'0 0.1
2017-Dec-07 08:59N 47°39' W 122°23'0 0.0
2017-Dec-07 08:29N 47°39' W 122°23'0 0.0
2017-Dec-07 07:59N 47°39' W 122°23'0 0.1
2017-Dec-07 07:29N 47°39' W 122°23'0 0.1
2017-Dec-07 06:56N 47°39' W 122°23'0 0.0
2017-Dec-07 06:29N 47°39' W 122°23'0 0.1
2017-Dec-07 05:53N 47°39' W 122°23'0 0.1
2017-Dec-07 05:29N 47°39' W 122°23'0 0.0
2017-Dec-07 04:50N 47°39' W 122°23'0 0.1
2017-Dec-07 04:29N 47°39' W 122°23'0 0.1
2017-Dec-07 03:57N 47°39' W 122°23'0 0.1
2017-Dec-07 03:30N 47°39' W 122°23'0 0.1
2017-Dec-07 02:59N 47°39' W 122°23'0 0.1
2017-Dec-07 02:29N 47°39' W 122°23'0 0.0
2017-Dec-07 01:59N 47°39' W 122°23'0 0.1
2017-Dec-07 01:29N 47°39' W 122°23'0 0.0
2017-Dec-07 00:59N 47°39' W 122°23'0 0.1
2017-Dec-07 00:29N 47°39' W 122°23'0 0.0
2017-Dec-06 23:59N 47°39' W 122°23'0 0.0
2017-Dec-06 23:29N 47°39' W 122°23'0 0.0
2017-Dec-06 22:59N 47°39' W 122°23'0 0.1
2017-Dec-06 22:26N 47°39' W 122°23'0 0.1
2017-Dec-06 21:59N 47°39' W 122°23'0 0.1
2017-Dec-06 21:26N 47°39' W 122°23'0 0.0
2017-Dec-06 20:59N 47°39' W 122°23'  
2017-Dec-04 10:24N 47°39' W 122°23'0 0.0
2017-Dec-04 10:00N 47°39' W 122°23'0 0.1
2017-Dec-04 09:27N 47°39' W 122°23'0 0.0
2017-Dec-04 09:00N 47°39' W 122°23'0 0.0
2017-Dec-04 08:26N 47°39' W 122°23'0 0.0
2017-Dec-04 07:59N 47°39' W 122°23'0 0.0
2017-Dec-04 07:30N 47°39' W 122°23'0 0.0
2017-Dec-04 00:38N 47°39' W 122°23'0 0.3
2017-Dec-04 00:29N 47°39' W 122°23'0 0.0
2017-Dec-03 23:53N 47°39' W 122°23'0 0.0
2017-Dec-03 23:29N 47°39' W 122°23'0 0.0
2017-Dec-03 22:56N 47°39' W 122°23'0 0.1
2017-Dec-03 22:29N 47°39' W 122°23'0 0.1
2017-Dec-03 21:59N 47°39' W 122°23'0 0.1
2017-Dec-03 21:26N 47°39' W 122°23'0 0.0
2017-Dec-03 20:59N 47°39' W 122°23'0 0.1
2017-Dec-03 20:29N 47°39' W 122°23'0 0.0
2017-Dec-03 19:59N 47°39' W 122°23'0 0.1
2017-Dec-03 19:29N 47°39' W 122°23'0 0.1
2017-Dec-03 18:56N 47°39' W 122°23'0 0.0
2017-Dec-03 18:29N 47°39' W 122°23'0 0.0
2017-Dec-03 17:59N 47°39' W 122°23'0 0.0
2017-Dec-03 17:29N 47°39' W 122°23'0 0.1
2017-Dec-03 16:59N 47°39' W 122°23'0 0.1
2017-Dec-03 16:29N 47°39' W 122°23'0 0.1
2017-Dec-03 15:56N 47°39' W 122°23'0 0.0
2017-Dec-03 15:26N 47°39' W 122°23'0 0.1
2017-Dec-03 14:59N 47°39' W 122°23'0 0.0
2017-Dec-03 14:29N 47°39' W 122°23'0 0.0
2017-Dec-03 13:59N 47°39' W 122°23'0 0.0
2017-Dec-03 13:29N 47°39' W 122°23'0 0.0
2017-Dec-03 12:59N 47°39' W 122°23'0 0.0
2017-Dec-03 12:29N 47°39' W 122°23'0 0.1
2017-Dec-03 11:59N 47°39' W 122°23'0 0.1
2017-Dec-03 11:29N 47°39' W 122°23'0 0.0
2017-Dec-03 10:59N 47°39' W 122°23'0 0.0
2017-Dec-03 10:29N 47°39' W 122°23'0 0.0
2017-Dec-03 09:59N 47°39' W 122°23'0 0.0
2017-Dec-03 09:29N 47°39' W 122°23'0 0.0
2017-Dec-03 08:59N 47°39' W 122°23'0 0.1
2017-Dec-03 08:29N 47°39' W 122°23'0 0.0
2017-Dec-03 07:59N 47°39' W 122°23'0 0.1
2017-Dec-03 07:26N 47°39' W 122°23'0 0.1
2017-Dec-03 06:59N 47°39' W 122°23'  
Track history (hours):
 
Tides and Currents Weather Stations Pressure Air Temp Water Temp Dewpoint Dewpoint Depression Visibility Wind Speed Wind Dir Waves Ship Positions

Paige Marie

Owner: SORO, INC., OLYMPIA, WA. More information available from US FCC via Universal Licensing System and Coast Guard Vessel Documentation Center.

Last reported at 2017-Dec-13 02:03 UTC. Time now 2017-Dec-15 10:30 UTC.
Position N 47°56' W 122°30'.

Length 18 m.

Type: Fishing. MMSI: 367355120.

Date/timePositionNaut miles runAvg speedWind from/ knotsBaromVisibWave heightAir tempDewpointWater temp
2017-Dec-13 02:03N 47°56' W 122°30'0 9.7
2017-Dec-13 02:01N 47°56' W 122°30'5 9.4
2017-Dec-13 01:30N 47°51' W 122°27'6 8.9
2017-Dec-13 00:51N 47°46' W 122°26'3 9.0
2017-Dec-13 00:30N 47°43' W 122°25'3 5.5
2017-Dec-12 23:59N 47°40' W 122°24'1 1.9
2017-Dec-12 23:30N 47°39' W 122°23'0 0.2
2017-Dec-12 22:59N 47°39' W 122°23'0 0.0
2017-Dec-12 22:29N 47°39' W 122°23'0 0.0
2017-Dec-12 21:59N 47°39' W 122°23'0 0.0
2017-Dec-12 21:30N 47°39' W 122°23'0 0.2
2017-Dec-12 20:59N 47°39' W 122°23'0 0.1
2017-Dec-12 20:29N 47°39' W 122°23'0 0.1
2017-Dec-12 19:59N 47°39' W 122°23'0 0.1
2017-Dec-12 19:29N 47°39' W 122°23'0 0.1
2017-Dec-12 18:59N 47°39' W 122°23'0 0.1
2017-Dec-12 18:26N 47°39' W 122°23'0 0.0
2017-Dec-12 17:59N 47°39' W 122°23'0 0.0
2017-Dec-12 17:29N 47°39' W 122°23'0 0.0
2017-Dec-12 16:23N 47°39' W 122°23'0 0.1
2017-Dec-12 15:41N 47°39' W 122°23'0 0.0
2017-Dec-12 15:26N 47°39' W 122°23'0 0.0
2017-Dec-12 14:59N 47°39' W 122°23'0 0.0
2017-Dec-12 14:29N 47°39' W 122°23'0 0.0
2017-Dec-12 13:59N 47°39' W 122°23'0 0.0
2017-Dec-12 13:29N 47°39' W 122°23'0 0.0
2017-Dec-12 12:59N 47°39' W 122°23'0 0.0
2017-Dec-12 12:29N 47°39' W 122°23'0 0.0
2017-Dec-12 11:59N 47°39' W 122°23'0 0.0
2017-Dec-12 11:29N 47°39' W 122°23'0 0.0
2017-Dec-12 10:59N 47°39' W 122°23'0 0.0
2017-Dec-12 10:29N 47°39' W 122°23'0 0.0
2017-Dec-12 09:59N 47°39' W 122°23'0 0.0
2017-Dec-12 09:26N 47°39' W 122°23'0 0.0
2017-Dec-12 08:59N 47°39' W 122°23'0 0.0
2017-Dec-12 08:29N 47°39' W 122°23'0 0.0
2017-Dec-12 07:59N 47°39' W 122°23'0 0.1
2017-Dec-12 07:29N 47°39' W 122°23'0 0.0
2017-Dec-12 06:14N 47°39' W 122°23'0 0.0
2017-Dec-11 23:32N 47°39' W 122°23'0 0.1
2017-Dec-11 23:29N 47°39' W 122°23'0 0.0
2017-Dec-11 22:59N 47°39' W 122°23'0 0.0
2017-Dec-11 22:26N 47°39' W 122°23'0 0.1
2017-Dec-11 21:47N 47°39' W 122°23'0 0.1
2017-Dec-11 21:29N 47°39' W 122°23'0 0.0
2017-Dec-11 20:59N 47°39' W 122°23'0 0.1
2017-Dec-11 20:29N 47°39' W 122°23'0 0.1
2017-Dec-11 19:59N 47°39' W 122°23'0 0.1
2017-Dec-11 19:29N 47°39' W 122°23'0 0.1
2017-Dec-11 18:59N 47°39' W 122°23'0 0.0
2017-Dec-11 18:29N 47°39' W 122°23'0 0.0
2017-Dec-11 17:53N 47°39' W 122°23'0 0.0
2017-Dec-11 17:29N 47°39' W 122°23'0 0.0
2017-Dec-11 16:59N 47°39' W 122°23'0 0.1
2017-Dec-11 16:26N 47°39' W 122°23'0 0.1
2017-Dec-11 15:59N 47°39' W 122°23'0 0.0
2017-Dec-11 15:30N 47°39' W 122°23'0 0.0
2017-Dec-11 15:00N 47°39' W 122°23'0 0.0
2017-Dec-11 14:30N 47°39' W 122°23'0 0.0
2017-Dec-11 14:00N 47°39' W 122°23'0 0.0
2017-Dec-11 13:30N 47°39' W 122°23'0 0.1
2017-Dec-11 13:00N 47°39' W 122°23'0 0.1
2017-Dec-11 12:30N 47°39' W 122°23'0 0.0
2017-Dec-11 11:59N 47°39' W 122°23'0 0.0
2017-Dec-11 11:29N 47°39' W 122°23'0 0.0
2017-Dec-11 10:59N 47°39' W 122°23'0 0.0
2017-Dec-11 10:29N 47°39' W 122°23'0 0.0
2017-Dec-11 09:58N 47°39' W 122°23'0 0.1
2017-Dec-11 09:23N 47°39' W 122°23'0 0.1
2017-Dec-11 08:58N 47°39' W 122°23'0 0.0
2017-Dec-11 08:28N 47°39' W 122°23'0 0.1
2017-Dec-11 07:58N 47°39' W 122°23'0 0.0
2017-Dec-11 07:28N 47°39' W 122°23'0 0.0
2017-Dec-11 06:58N 47°39' W 122°23'0 0.1
2017-Dec-11 06:25N 47°39' W 122°23'0 0.1
2017-Dec-11 05:59N 47°39' W 122°23'0 0.0
2017-Dec-11 05:29N 47°39' W 122°23'0 0.1
2017-Dec-11 04:41N 47°39' W 122°23'0 0.1
2017-Dec-11 04:17N 47°39' W 122°23'0 0.0
2017-Dec-11 03:07N 47°39' W 122°23'0 0.2
2017-Dec-11 02:55N 47°39' W 122°23'0 0.1
2017-Dec-11 02:16N 47°39' W 122°23'0 0.0
2017-Dec-11 01:55N 47°39' W 122°23'0 0.0
2017-Dec-11 01:28N 47°39' W 122°23'0 0.0
2017-Dec-11 00:49N 47°39' W 122°23'0 0.0
2017-Dec-11 00:25N 47°39' W 122°23'0 0.0
2017-Dec-10 23:52N 47°39' W 122°23'0 0.0
2017-Dec-10 23:28N 47°39' W 122°23'0 0.0
2017-Dec-10 22:58N 47°39' W 122°23'0 0.0
2017-Dec-10 22:28N 47°39' W 122°23'0 0.1
2017-Dec-10 21:58N 47°39' W 122°23'0 0.0
2017-Dec-10 21:28N 47°39' W 122°23'0 0.1
2017-Dec-10 20:55N 47°39' W 122°23'0 0.0
2017-Dec-10 20:25N 47°39' W 122°23'0 0.0
2017-Dec-10 19:58N 47°39' W 122°23'0 0.0
2017-Dec-10 19:28N 47°39' W 122°23'0 0.1
2017-Dec-10 18:52N 47°39' W 122°23'0 0.1
2017-Dec-10 18:28N 47°39' W 122°23'0 0.0
2017-Dec-10 17:16N 47°39' W 122°23'0 0.0
2017-Dec-10 16:58N 47°39' W 122°23'0 0.0
2017-Dec-10 16:28N 47°39' W 122°23'0 0.1
2017-Dec-10 15:55N 47°39' W 122°23'0 0.1
2017-Dec-10 15:19N 47°39' W 122°23'0 0.0
2017-Dec-10 14:58N 47°39' W 122°23'0 0.0
2017-Dec-10 14:28N 47°39' W 122°23'0 0.0
2017-Dec-10 13:58N 47°39' W 122°23'0 0.0
2017-Dec-10 13:28N 47°39' W 122°23'0 0.0
2017-Dec-10 12:58N 47°39' W 122°23'0 0.0
2017-Dec-10 12:25N 47°39' W 122°23'0 0.0
2017-Dec-10 11:58N 47°39' W 122°23'0 0.0
2017-Dec-10 11:28N 47°39' W 122°23'0 0.0
2017-Dec-10 10:58N 47°39' W 122°23'0 0.0
2017-Dec-10 10:28N 47°39' W 122°23'0 0.1
2017-Dec-10 09:58N 47°39' W 122°23'0 0.0
2017-Dec-10 09:25N 47°39' W 122°23'0 0.0
2017-Dec-10 08:58N 47°39' W 122°23'0 0.0
2017-Dec-10 08:28N 47°39' W 122°23'0 0.1
2017-Dec-10 07:55N 47°39' W 122°23'0 0.0
2017-Dec-10 07:22N 47°39' W 122°23'0 0.0
2017-Dec-10 06:58N 47°39' W 122°23'0 0.1
2017-Dec-10 06:28N 47°39' W 122°23'0 0.0
2017-Dec-10 04:43N 47°39' W 122°23'0 0.0
2017-Dec-10 04:28N 47°39' W 122°23'0 0.1
2017-Dec-10 03:49N 47°39' W 122°23'0 0.0
2017-Dec-10 03:28N 47°39' W 122°23'0 0.0
2017-Dec-10 01:07N 47°39' W 122°23'0 0.0
2017-Dec-10 00:43N 47°39' W 122°23'0 0.0
2017-Dec-10 00:16N 47°39' W 122°23'0 0.0
2017-Dec-09 23:58N 47°39' W 122°23'0 0.0
2017-Dec-09 23:04N 47°39' W 122°23'0 0.1
2017-Dec-09 22:58N 47°39' W 122°23'0 0.1
2017-Dec-09 22:19N 47°39' W 122°23'0 0.0
2017-Dec-09 21:58N 47°39' W 122°23'0 0.0
2017-Dec-09 21:28N 47°39' W 122°23'0 0.0
2017-Dec-09 20:46N 47°39' W 122°23'0 0.0
2017-Dec-09 20:28N 47°39' W 122°23'0 0.1
2017-Dec-09 19:58N 47°39' W 122°23'0 0.0
2017-Dec-09 18:43N 47°39' W 122°23'0 0.1
2017-Dec-09 18:07N 47°39' W 122°23'0 0.3
2017-Dec-09 17:58N 47°39' W 122°23'0 0.1
2017-Dec-09 17:25N 47°39' W 122°23'0 0.1
2017-Dec-09 16:55N 47°39' W 122°23'0 0.0
2017-Dec-09 16:13N 47°39' W 122°23'0 0.0
2017-Dec-09 15:58N 47°39' W 122°23'0 0.1
2017-Dec-09 15:28N 47°39' W 122°23'0 0.1
2017-Dec-09 14:58N 47°39' W 122°23'0 0.0
2017-Dec-09 14:28N 47°39' W 122°23'0 0.0
2017-Dec-09 13:58N 47°39' W 122°23'0 0.0
2017-Dec-09 13:28N 47°39' W 122°23'0 0.1
2017-Dec-09 12:52N 47°39' W 122°23'0 0.1
2017-Dec-09 12:25N 47°39' W 122°23'0 0.1
2017-Dec-09 11:58N 47°39' W 122°23'0 0.1
2017-Dec-09 11:28N 47°39' W 122°23'0 0.0
2017-Dec-09 10:58N 47°39' W 122°23'0 0.0
2017-Dec-09 10:28N 47°39' W 122°23'0 0.1
2017-Dec-09 09:58N 47°39' W 122°23'0 0.1
2017-Dec-09 09:28N 47°39' W 122°23'0 0.0
2017-Dec-09 08:58N 47°39' W 122°23'0 0.1
2017-Dec-09 08:25N 47°39' W 122°23'0 0.0
2017-Dec-09 07:58N 47°39' W 122°23'0 0.1
2017-Dec-09 07:28N 47°39' W 122°23'0 0.1
2017-Dec-09 06:55N 47°39' W 122°23'0 0.1
2017-Dec-09 06:25N 47°39' W 122°23'0 0.0
2017-Dec-09 03:22N 47°39' W 122°23'0 0.1
2017-Dec-09 02:55N 47°39' W 122°23'0 0.0
2017-Dec-09 01:01N 47°39' W 122°23'0 0.0
2017-Dec-09 00:58N 47°39' W 122°23'0 0.0
2017-Dec-09 00:10N 47°39' W 122°23'0 0.0
2017-Dec-08 23:46N 47°39' W 122°23'0 0.0
2017-Dec-08 23:28N 47°39' W 122°23'0 0.1
2017-Dec-08 22:52N 47°39' W 122°23'0 0.0
2017-Dec-08 22:28N 47°39' W 122°23'0 0.0
2017-Dec-08 21:59N 47°39' W 122°23'0 0.0
2017-Dec-08 21:23N 47°39' W 122°23'0 0.0
2017-Dec-08 20:55N 47°39' W 122°23'0 0.0
2017-Dec-08 20:26N 47°39' W 122°23'0 0.0
2017-Dec-08 19:59N 47°39' W 122°23'0 0.0
2017-Dec-08 19:29N 47°39' W 122°23'0 0.0
2017-Dec-08 18:59N 47°39' W 122°23'0 0.1
2017-Dec-08 18:29N 47°39' W 122°23'0 0.0
2017-Dec-08 17:59N 47°39' W 122°23'0 0.0
2017-Dec-08 17:29N 47°39' W 122°23'0 0.0
2017-Dec-08 16:50N 47°39' W 122°23'0 0.0
2017-Dec-08 16:26N 47°39' W 122°23'0 0.0
2017-Dec-08 15:59N 47°39' W 122°23'0 0.0
2017-Dec-08 15:26N 47°39' W 122°23'0 0.0
2017-Dec-08 14:59N 47°39' W 122°23'0 0.0
2017-Dec-08 14:26N 47°39' W 122°23'0 0.0
2017-Dec-08 13:59N 47°39' W 122°23'0 0.0
2017-Dec-08 13:29N 47°39' W 122°23'0 0.1
2017-Dec-08 12:59N 47°39' W 122°23'0 0.1
2017-Dec-08 12:29N 47°39' W 122°23'0 0.1
2017-Dec-08 11:59N 47°39' W 122°23'0 0.1
2017-Dec-08 11:29N 47°39' W 122°23'0 0.0
2017-Dec-08 10:59N 47°39' W 122°23'0 0.0
2017-Dec-08 10:29N 47°39' W 122°23'0 0.0
2017-Dec-08 09:59N 47°39' W 122°23'0 0.0
2017-Dec-08 09:29N 47°39' W 122°23'0 0.0
2017-Dec-08 08:59N 47°39' W 122°23'0 0.1
2017-Dec-08 08:29N 47°39' W 122°23'0 0.1
2017-Dec-08 07:59N 47°39' W 122°23'0 0.0
2017-Dec-08 07:29N 47°39' W 122°23'0 0.0
2017-Dec-08 04:02N 47°39' W 122°23'0 0.0
2017-Dec-08 03:53N 47°39' W 122°23'0 0.0
2017-Dec-08 03:08N 47°39' W 122°23'0 0.1
2017-Dec-08 02:47N 47°39' W 122°23'0 0.0
2017-Dec-08 02:20N 47°39' W 122°23'0 0.0
2017-Dec-08 01:56N 47°39' W 122°23'0 0.1
2017-Dec-08 01:26N 47°39' W 122°23'0 0.0
2017-Dec-08 00:59N 47°39' W 122°23'0 0.1
2017-Dec-08 00:29N 47°39' W 122°23'0 0.0
2017-Dec-07 23:56N 47°39' W 122°23'0 0.0
2017-Dec-07 23:29N 47°39' W 122°23'0 0.0
2017-Dec-07 22:59N 47°39' W 122°23'0 0.1
2017-Dec-07 22:29N 47°39' W 122°23'0 0.1
2017-Dec-07 21:59N 47°39' W 122°23'0 0.1
2017-Dec-07 21:29N 47°39' W 122°23'0 0.0
2017-Dec-07 20:59N 47°39' W 122°23'0 0.0
2017-Dec-07 20:29N 47°39' W 122°23'0 0.1
2017-Dec-07 19:56N 47°39' W 122°23'0 0.1
2017-Dec-07 19:29N 47°39' W 122°23'0 0.0
2017-Dec-07 18:59N 47°39' W 122°23'0 0.1
2017-Dec-07 18:29N 47°39' W 122°23'0 0.0
2017-Dec-07 17:59N 47°39' W 122°23'0 0.0
2017-Dec-07 17:29N 47°39' W 122°23'0 0.0
2017-Dec-07 16:59N 47°39' W 122°23'0 0.0
2017-Dec-07 16:29N 47°39' W 122°23'0 0.0
2017-Dec-07 15:59N 47°39' W 122°23'0 0.0
2017-Dec-07 15:29N 47°39' W 122°23'0 0.0
2017-Dec-07 14:59N 47°39' W 122°23'0 0.0
2017-Dec-07 14:26N 47°39' W 122°23'0 0.0
2017-Dec-07 13:59N 47°39' W 122°23'0 0.0
2017-Dec-07 13:26N 47°39' W 122°23'0 0.0
2017-Dec-07 12:59N 47°39' W 122°23'0 0.0
2017-Dec-07 12:29N 47°39' W 122°23'0 0.0
2017-Dec-07 11:59N 47°39' W 122°23'0 0.1
2017-Dec-07 11:29N 47°39' W 122°23'0 0.1
2017-Dec-07 10:56N 47°39' W 122°23'0 0.0
2017-Dec-07 10:30N 47°39' W 122°23'0 0.1
2017-Dec-07 10:00N 47°39' W 122°23'0 0.1
2017-Dec-07 09:29N 47°39' W 122°23'0 0.1
2017-Dec-07 08:59N 47°39' W 122°23'0 0.0
2017-Dec-07 08:29N 47°39' W 122°23'0 0.0
2017-Dec-07 07:59N 47°39' W 122°23'0 0.1
2017-Dec-07 07:29N 47°39' W 122°23'0 0.1
2017-Dec-07 06:56N 47°39' W 122°23'0 0.0
2017-Dec-07 06:29N 47°39' W 122°23'0 0.1
2017-Dec-07 05:53N 47°39' W 122°23'0 0.1
2017-Dec-07 05:29N 47°39' W 122°23'0 0.0
2017-Dec-07 04:50N 47°39' W 122°23'0 0.1
2017-Dec-07 04:29N 47°39' W 122°23'0 0.1
2017-Dec-07 03:57N 47°39' W 122°23'0 0.1
2017-Dec-07 03:30N 47°39' W 122°23'0 0.1
2017-Dec-07 02:59N 47°39' W 122°23'0 0.1
2017-Dec-07 02:29N 47°39' W 122°23'0 0.0
2017-Dec-07 01:59N 47°39' W 122°23'0 0.1
2017-Dec-07 01:29N 47°39' W 122°23'0 0.0
2017-Dec-07 00:59N 47°39' W 122°23'0 0.1
2017-Dec-07 00:29N 47°39' W 122°23'0 0.0
2017-Dec-06 23:59N 47°39' W 122°23'0 0.0
2017-Dec-06 23:29N 47°39' W 122°23'0 0.0
2017-Dec-06 22:59N 47°39' W 122°23'0 0.1
2017-Dec-06 22:26N 47°39' W 122°23'0 0.1
2017-Dec-06 21:59N 47°39' W 122°23'0 0.1
2017-Dec-06 21:26N 47°39' W 122°23'0 0.0
2017-Dec-06 20:59N 47°39' W 122°23'  
2017-Dec-04 10:24N 47°39' W 122°23'0 0.0
2017-Dec-04 10:00N 47°39' W 122°23'0 0.1
2017-Dec-04 09:27N 47°39' W 122°23'0 0.0
2017-Dec-04 09:00N 47°39' W 122°23'0 0.0
2017-Dec-04 08:26N 47°39' W 122°23'0 0.0
2017-Dec-04 07:59N 47°39' W 122°23'0 0.0
2017-Dec-04 07:30N 47°39' W 122°23'0 0.0
2017-Dec-04 00:38N 47°39' W 122°23'0 0.3
2017-Dec-04 00:29N 47°39' W 122°23'0 0.0
2017-Dec-03 23:53N 47°39' W 122°23'0 0.0
2017-Dec-03 23:29N 47°39' W 122°23'0 0.0
2017-Dec-03 22:56N 47°39' W 122°23'0 0.1
2017-Dec-03 22:29N 47°39' W 122°23'0 0.1
2017-Dec-03 21:59N 47°39' W 122°23'0 0.1
2017-Dec-03 21:26N 47°39' W 122°23'0 0.0
2017-Dec-03 20:59N 47°39' W 122°23'0 0.1
2017-Dec-03 20:29N 47°39' W 122°23'0 0.0
2017-Dec-03 19:59N 47°39' W 122°23'0 0.1
2017-Dec-03 19:29N 47°39' W 122°23'0 0.1
2017-Dec-03 18:56N 47°39' W 122°23'0 0.0
2017-Dec-03 18:29N 47°39' W 122°23'0 0.0
2017-Dec-03 17:59N 47°39' W 122°23'0 0.0
2017-Dec-03 17:29N 47°39' W 122°23'0 0.1
2017-Dec-03 16:59N 47°39' W 122°23'0 0.1
2017-Dec-03 16:29N 47°39' W 122°23'0 0.1
2017-Dec-03 15:56N 47°39' W 122°23'0 0.0
2017-Dec-03 15:26N 47°39' W 122°23'0 0.1
2017-Dec-03 14:59N 47°39' W 122°23'0 0.0
2017-Dec-03 14:29N 47°39' W 122°23'0 0.0
2017-Dec-03 13:59N 47°39' W 122°23'0 0.0
2017-Dec-03 13:29N 47°39' W 122°23'0 0.0
2017-Dec-03 12:59N 47°39' W 122°23'0 0.0
2017-Dec-03 12:29N 47°39' W 122°23'0 0.1
2017-Dec-03 11:59N 47°39' W 122°23'0 0.1
2017-Dec-03 11:29N 47°39' W 122°23'0 0.0
2017-Dec-03 10:59N 47°39' W 122°23'0 0.0
2017-Dec-03 10:29N 47°39' W 122°23'0 0.0
2017-Dec-03 09:59N 47°39' W 122°23'0 0.0
2017-Dec-03 09:29N 47°39' W 122°23'0 0.0
2017-Dec-03 08:59N 47°39' W 122°23'0 0.1
2017-Dec-03 08:29N 47°39' W 122°23'0 0.0
2017-Dec-03 07:59N 47°39' W 122°23'0 0.1
2017-Dec-03 07:26N 47°39' W 122°23'0 0.1
2017-Dec-03 06:59N 47°39' W 122°23'  

Dump ship's entire track history